sensor_id;sensor_type;location;lat;lon;timestamp;pressure;altitude;pressure_sealevel;temperature;humidity
57604;BME280;43429;47.380;8.484;2022-07-10T00:01:52;97323.16;;;16.59;91.92
57604;BME280;43429;47.380;8.484;2022-07-10T00:04:19;97318.53;;;16.45;95.72
57604;BME280;43429;47.380;8.484;2022-07-10T00:06:45;97321.22;;;16.45;96.35
57604;BME280;43429;47.380;8.484;2022-07-10T00:09:12;97317.50;;;16.46;96.01
57604;BME280;43429;47.380;8.484;2022-07-10T00:11:38;97318.38;;;16.38;99.84
57604;BME280;43429;47.380;8.484;2022-07-10T00:14:04;97319.28;;;16.31;100.00
57604;BME280;43429;47.380;8.484;2022-07-10T00:16:30;97314.06;;;16.29;100.00
57604;BME280;43429;47.380;8.484;2022-07-10T00:18:56;97308.81;;;16.36;100.00
57604;BME280;43429;47.380;8.484;2022-07-10T00:21:23;97312.34;;;16.36;100.00
57604;BME280;43429;47.380;8.484;2022-07-10T00:23:49;97310.69;;;16.27;100.00
57604;BME280;43429;47.380;8.484;2022-07-10T00:26:16;97317.13;;;16.18;100.00
57604;BME280;43429;47.380;8.484;2022-07-10T00:28:42;97308.19;;;16.17;100.00
57604;BME280;43429;47.380;8.484;2022-07-10T00:31:08;97315.94;;;16.21;100.00
57604;BME280;43429;47.380;8.484;2022-07-10T00:33:36;97316.97;;;16.11;100.00
57604;BME280;43429;47.380;8.484;2022-07-10T00:36:03;97315.88;;;15.98;100.00
57604;BME280;43429;47.380;8.484;2022-07-10T00:38:29;97314.28;;;16.11;100.00
57604;BME280;43429;47.380;8.484;2022-07-10T00:40:56;97314.78;;;16.15;100.00
57604;BME280;43429;47.380;8.484;2022-07-10T00:43:22;97312.94;;;16.07;100.00
57604;BME280;43429;47.380;8.484;2022-07-10T00:45:48;97320.03;;;16.08;100.00
57604;BME280;43429;47.380;8.484;2022-07-10T00:48:16;97317.50;;;16.07;100.00
57604;BME280;43429;47.380;8.484;2022-07-10T00:50:45;97316.06;;;15.88;100.00
57604;BME280;43429;47.380;8.484;2022-07-10T00:53:12;97314.16;;;15.97;100.00
57604;BME280;43429;47.380;8.484;2022-07-10T00:55:39;97309.94;;;16.02;100.00
57604;BME280;43429;47.380;8.484;2022-07-10T00:58:07;97314.16;;;16.05;100.00
57604;BME280;43429;47.380;8.484;2022-07-10T01:00:34;97314.34;;;15.95;100.00
57604;BME280;43429;47.380;8.484;2022-07-10T01:03:05;97306.13;;;15.88;100.00
57604;BME280;43429;47.380;8.484;2022-07-10T01:05:31;97303.59;;;15.95;100.00
57604;BME280;43429;47.380;8.484;2022-07-10T01:07:57;97306.34;;;15.71;100.00
57604;BME280;43429;47.380;8.484;2022-07-10T01:10:23;97305.88;;;15.67;100.00
57604;BME280;43429;47.380;8.484;2022-07-10T01:12:51;97305.34;;;15.72;100.00
57604;BME280;43429;47.380;8.484;2022-07-10T01:15:18;97297.28;;;15.72;100.00
57604;BME280;43429;47.380;8.484;2022-07-10T01:17:44;97299.59;;;15.83;100.00
57604;BME280;43429;47.380;8.484;2022-07-10T01:20:11;97296.22;;;15.89;100.00
57604;BME280;43429;47.380;8.484;2022-07-10T01:22:38;97293.66;;;15.96;100.00
57604;BME280;43429;47.380;8.484;2022-07-10T01:25:05;97295.81;;;16.00;100.00
57604;BME280;43429;47.380;8.484;2022-07-10T01:27:31;97291.59;;;16.06;100.00
57604;BME280;43429;47.380;8.484;2022-07-10T01:29:58;97304.94;;;15.91;100.00
57604;BME280;43429;47.380;8.484;2022-07-10T01:32:25;97300.38;;;15.91;100.00
57604;BME280;43429;47.380;8.484;2022-07-10T01:34:51;97296.34;;;15.96;100.00
57604;BME280;43429;47.380;8.484;2022-07-10T01:37:17;97293.63;;;16.04;100.00
57604;BME280;43429;47.380;8.484;2022-07-10T01:39:44;97296.66;;;16.09;100.00
57604;BME280;43429;47.380;8.484;2022-07-10T01:42:10;97299.53;;;15.99;100.00
57604;BME280;43429;47.380;8.484;2022-07-10T01:44:36;97305.00;;;15.75;100.00
57604;BME280;43429;47.380;8.484;2022-07-10T01:47:04;97300.63;;;15.74;100.00
57604;BME280;43429;47.380;8.484;2022-07-10T01:49:30;97308.53;;;15.59;100.00
57604;BME280;43429;47.380;8.484;2022-07-10T01:51:57;97297.28;;;15.72;100.00
57604;BME280;43429;47.380;8.484;2022-07-10T01:54:24;97307.81;;;15.81;100.00
57604;BME280;43429;47.380;8.484;2022-07-10T01:56:51;97318.28;;;15.60;100.00
57604;BME280;43429;47.380;8.484;2022-07-10T01:59:17;97321.13;;;15.50;100.00
57604;BME280;43429;47.380;8.484;2022-07-10T02:01:43;97321.81;;;15.60;100.00
57604;BME280;43429;47.380;8.484;2022-07-10T02:04:09;97329.91;;;15.69;100.00
57604;BME280;43429;47.380;8.484;2022-07-10T02:06:53;97327.03;;;15.54;100.00
57604;BME280;43429;47.380;8.484;2022-07-10T02:09:21;97320.97;;;15.60;100.00
57604;BME280;43429;47.380;8.484;2022-07-10T02:11:47;97328.56;;;15.73;100.00
57604;BME280;43429;47.380;8.484;2022-07-10T02:14:13;97318.91;;;15.86;100.00
57604;BME280;43429;47.380;8.484;2022-07-10T02:16:40;97319.41;;;15.90;100.00
57604;BME280;43429;47.380;8.484;2022-07-10T02:19:07;97325.88;;;15.73;100.00
57604;BME280;43429;47.380;8.484;2022-07-10T02:21:33;97319.09;;;15.60;100.00
57604;BME280;43429;47.380;8.484;2022-07-10T02:23:59;97320.13;;;15.59;100.00
57604;BME280;43429;47.380;8.484;2022-07-10T02:26:25;97322.50;;;15.54;100.00
57604;BME280;43429;47.380;8.484;2022-07-10T02:28:51;97325.88;;;15.64;100.00
57604;BME280;43429;47.380;8.484;2022-07-10T02:31:18;97332.28;;;15.72;100.00
57604;BME280;43429;47.380;8.484;2022-07-10T02:33:45;97329.03;;;15.60;100.00
57604;BME280;43429;47.380;8.484;2022-07-10T02:36:11;97328.72;;;15.55;100.00
57604;BME280;43429;47.380;8.484;2022-07-10T02:38:37;97332.59;;;15.44;100.00
57604;BME280;43429;47.380;8.484;2022-07-10T02:41:04;97327.03;;;15.29;100.00
57604;BME280;43429;47.380;8.484;2022-07-10T02:43:30;97339.69;;;15.21;100.00
57604;BME280;43429;47.380;8.484;2022-07-10T02:45:56;97334.47;;;15.11;100.00
57604;BME280;43429;47.380;8.484;2022-07-10T02:48:23;97326.88;;;15.23;100.00
57604;BME280;43429;47.380;8.484;2022-07-10T02:50:50;97329.25;;;15.26;100.00
57604;BME280;43429;47.380;8.484;2022-07-10T02:53:16;97335.81;;;15.15;100.00
57604;BME280;43429;47.380;8.484;2022-07-10T02:55:42;97326.06;;;15.06;100.00
57604;BME280;43429;47.380;8.484;2022-07-10T02:58:08;97330.59;;;15.05;100.00
57604;BME280;43429;47.380;8.484;2022-07-10T03:00:35;97328.91;;;15.12;100.00
57604;BME280;43429;47.380;8.484;2022-07-10T03:03:01;97330.44;;;15.15;100.00
57604;BME280;43429;47.380;8.484;2022-07-10T03:05:28;97327.72;;;15.23;100.00
57604;BME280;43429;47.380;8.484;2022-07-10T03:07:54;97328.75;;;15.30;100.00
57604;BME280;43429;47.380;8.484;2022-07-10T03:10:20;97334.78;;;15.32;100.00
57604;BME280;43429;47.380;8.484;2022-07-10T03:12:47;97333.28;;;15.46;100.00
57604;BME280;43429;47.380;8.484;2022-07-10T03:15:13;97326.91;;;15.31;100.00
57604;BME280;43429;47.380;8.484;2022-07-10T03:17:40;97326.19;;;15.45;100.00
57604;BME280;43429;47.380;8.484;2022-07-10T03:20:06;97328.38;;;15.50;100.00
57604;BME280;43429;47.380;8.484;2022-07-10T03:22:34;97337.94;;;15.60;100.00
57604;BME280;43429;47.380;8.484;2022-07-10T03:25:01;97330.03;;;15.83;100.00
57604;BME280;43429;47.380;8.484;2022-07-10T03:27:28;97331.03;;;15.90;100.00
57604;BME280;43429;47.380;8.484;2022-07-10T03:29:54;97323.59;;;16.01;100.00
57604;BME280;43429;47.380;8.484;2022-07-10T03:32:20;97336.53;;;16.13;100.00
57604;BME280;43429;47.380;8.484;2022-07-10T03:34:46;97330.06;;;16.23;100.00
57604;BME280;43429;47.380;8.484;2022-07-10T03:37:13;97331.06;;;16.30;100.00
57604;BME280;43429;47.380;8.484;2022-07-10T03:39:39;97331.38;;;16.35;100.00
57604;BME280;43429;47.380;8.484;2022-07-10T03:42:06;97333.19;;;16.42;100.00
57604;BME280;43429;47.380;8.484;2022-07-10T03:44:32;97332.16;;;16.43;100.00
57604;BME280;43429;47.380;8.484;2022-07-10T03:46:59;97327.47;;;16.37;100.00
57604;BME280;43429;47.380;8.484;2022-07-10T03:49:26;97329.88;;;16.32;100.00
57604;BME280;43429;47.380;8.484;2022-07-10T03:51:52;97320.53;;;16.43;100.00
57604;BME280;43429;47.380;8.484;2022-07-10T03:54:18;97326.97;;;16.42;100.00
57604;BME280;43429;47.380;8.484;2022-07-10T03:56:45;97319.00;;;16.49;100.00
57604;BME280;43429;47.380;8.484;2022-07-10T03:59:31;97326.97;;;16.34;100.00
57604;BME280;43429;47.380;8.484;2022-07-10T04:01:57;97317.28;;;16.25;100.00
57604;BME280;43429;47.380;8.484;2022-07-10T04:04:24;97320.69;;;16.10;100.00
57604;BME280;43429;47.380;8.484;2022-07-10T04:06:50;97321.72;;;16.01;100.00
57604;BME280;43429;47.380;8.484;2022-07-10T04:09:16;97320.72;;;16.02;100.00
57604;BME280;43429;47.380;8.484;2022-07-10T04:11:42;97317.34;;;16.08;100.00
57604;BME280;43429;47.380;8.484;2022-07-10T04:14:09;97320.38;;;16.13;100.00
57604;BME280;43429;47.380;8.484;2022-07-10T04:16:35;97317.94;;;15.87;100.00
57604;BME280;43429;47.380;8.484;2022-07-10T04:19:01;97323.41;;;16.02;100.00
57604;BME280;43429;47.380;8.484;2022-07-10T04:21:27;97326.75;;;16.12;100.00
57604;BME280;43429;47.380;8.484;2022-07-10T04:23:53;97331.59;;;16.17;100.00
57604;BME280;43429;47.380;8.484;2022-07-10T04:26:20;97317.47;;;16.15;100.00
57604;BME280;43429;47.380;8.484;2022-07-10T04:28:46;97322.69;;;16.16;100.00
57604;BME280;43429;47.380;8.484;2022-07-10T04:31:12;97317.81;;;16.12;100.00
57604;BME280;43429;47.380;8.484;2022-07-10T04:33:39;97322.16;;;16.21;100.00
57604;BME280;43429;47.380;8.484;2022-07-10T04:36:05;97324.25;;;16.42;100.00
57604;BME280;43429;47.380;8.484;2022-07-10T04:38:31;97326.00;;;16.35;100.00
57604;BME280;43429;47.380;8.484;2022-07-10T04:40:58;97324.25;;;16.42;100.00
57604;BME280;43429;47.380;8.484;2022-07-10T04:43:24;97325.94;;;16.43;100.00
57604;BME280;43429;47.380;8.484;2022-07-10T04:45:50;97322.63;;;16.33;100.00
57604;BME280;43429;47.380;8.484;2022-07-10T04:48:17;97328.00;;;16.33;100.00
57604;BME280;43429;47.380;8.484;2022-07-10T04:50:43;97331.59;;;16.25;100.00
57604;BME280;43429;47.380;8.484;2022-07-10T04:53:09;97325.38;;;16.56;100.00
57604;BME280;43429;47.380;8.484;2022-07-10T04:55:35;97330.91;;;16.62;100.00
57604;BME280;43429;47.380;8.484;2022-07-10T04:58:01;97328.81;;;16.41;100.00
57604;BME280;43429;47.380;8.484;2022-07-10T05:00:28;97327.56;;;16.60;100.00
57604;BME280;43429;47.380;8.484;2022-07-10T05:02:55;97333.63;;;16.85;100.00
57604;BME280;43429;47.380;8.484;2022-07-10T05:05:21;97335.38;;;16.70;100.00
57604;BME280;43429;47.380;8.484;2022-07-10T05:07:47;97335.69;;;17.06;100.00
57604;BME280;43429;47.380;8.484;2022-07-10T05:10:14;97342.81;;;17.45;100.00
57604;BME280;43429;47.380;8.484;2022-07-10T05:12:40;97342.41;;;17.71;100.00
57604;BME280;43429;47.380;8.484;2022-07-10T05:15:07;97333.22;;;18.10;97.89
57604;BME280;43429;47.380;8.484;2022-07-10T05:17:36;97337.66;;;18.47;93.83
57604;BME280;43429;47.380;8.484;2022-07-10T05:20:02;97340.63;;;18.67;91.81
57604;BME280;43429;47.380;8.484;2022-07-10T05:22:30;97336.78;;;18.91;88.99
57604;BME280;43429;47.380;8.484;2022-07-10T05:24:57;97337.81;;;19.11;84.94
57604;BME280;43429;47.380;8.484;2022-07-10T05:27:23;97339.00;;;18.87;84.27
57604;BME280;43429;47.380;8.484;2022-07-10T05:29:49;97336.50;;;19.50;80.70
57604;BME280;43429;47.380;8.484;2022-07-10T05:32:16;97335.66;;;19.49;80.43
57604;BME280;43429;47.380;8.484;2022-07-10T05:34:42;97333.63;;;19.09;81.09
57604;BME280;43429;47.380;8.484;2022-07-10T05:37:08;97350.06;;;19.28;82.45
57604;BME280;43429;47.380;8.484;2022-07-10T05:39:35;97344.59;;;19.43;80.77
57604;BME280;43429;47.380;8.484;2022-07-10T05:42:01;97342.50;;;19.45;79.47
57604;BME280;43429;47.380;8.484;2022-07-10T05:44:27;97333.31;;;18.97;81.95
57604;BME280;43429;47.380;8.484;2022-07-10T05:46:54;97342.06;;;18.99;82.78
57604;BME280;43429;47.380;8.484;2022-07-10T05:49:20;97339.38;;;18.84;82.86
57604;BME280;43429;47.380;8.484;2022-07-10T05:51:46;97338.25;;;19.15;82.53
57604;BME280;43429;47.380;8.484;2022-07-10T05:54:12;97336.19;;;19.38;80.50
57604;BME280;43429;47.380;8.484;2022-07-10T05:56:39;97340.00;;;19.44;79.44
57604;BME280;43429;47.380;8.484;2022-07-10T05:59:05;97340.06;;;19.29;80.84
57604;BME280;43429;47.380;8.484;2022-07-10T06:01:31;97345.09;;;19.32;81.59
57604;BME280;43429;47.380;8.484;2022-07-10T06:03:57;97348.41;;;19.55;79.49
57604;BME280;43429;47.380;8.484;2022-07-10T06:06:23;97346.78;;;19.33;80.36
57604;BME280;43429;47.380;8.484;2022-07-10T06:08:50;97342.31;;;19.68;78.02
57604;BME280;43429;47.380;8.484;2022-07-10T06:11:16;97345.41;;;19.44;78.97
57604;BME280;43429;47.380;8.484;2022-07-10T06:13:43;97350.06;;;19.28;80.15
57604;BME280;43429;47.380;8.484;2022-07-10T06:16:10;97347.66;;;19.19;79.75
57604;BME280;43429;47.380;8.484;2022-07-10T06:18:36;97344.06;;;19.12;79.89
57604;BME280;43429;47.380;8.484;2022-07-10T06:21:02;97337.81;;;19.82;76.74
57604;BME280;43429;47.380;8.484;2022-07-10T06:23:28;97333.00;;;19.77;77.44
57604;BME280;43429;47.380;8.484;2022-07-10T06:25:54;97331.03;;;20.69;71.80
57604;BME280;43429;47.380;8.484;2022-07-10T06:28:21;97332.63;;;20.50;70.99
57604;BME280;43429;47.380;8.484;2022-07-10T06:30:48;97329.84;;;20.37;72.36
57604;BME280;43429;47.380;8.484;2022-07-10T06:33:14;97331.16;;;19.35;79.40
57604;BME280;43429;47.380;8.484;2022-07-10T06:35:40;97335.47;;;19.51;78.16
57604;BME280;43429;47.380;8.484;2022-07-10T06:38:06;97346.53;;;19.28;79.02
57604;BME280;43429;47.380;8.484;2022-07-10T06:40:35;97339.63;;;20.03;74.17
57604;BME280;43429;47.380;8.484;2022-07-10T06:43:02;97342.69;;;20.21;73.29
57604;BME280;43429;47.380;8.484;2022-07-10T06:45:28;97340.94;;;20.90;69.32
57604;BME280;43429;47.380;8.484;2022-07-10T06:47:56;97337.09;;;20.71;70.35
57604;BME280;43429;47.380;8.484;2022-07-10T06:50:22;97345.81;;;21.21;68.39
57604;BME280;43429;47.380;8.484;2022-07-10T06:52:49;97343.47;;;21.04;67.66
57604;BME280;43429;47.380;8.484;2022-07-10T06:55:18;97347.56;;;20.80;67.57
57604;BME280;43429;47.380;8.484;2022-07-10T06:57:44;97348.59;;;20.38;69.57
57604;BME280;43429;47.380;8.484;2022-07-10T07:00:10;97351.38;;;20.10;70.49
57604;BME280;43429;47.380;8.484;2022-07-10T07:02:37;97338.56;;;20.32;70.45
57604;BME280;43429;47.380;8.484;2022-07-10T07:05:05;97347.78;;;20.38;70.56
57604;BME280;43429;47.380;8.484;2022-07-10T07:07:31;97346.16;;;20.98;69.09
57604;BME280;43429;47.380;8.484;2022-07-10T07:09:57;97349.75;;;21.05;68.06
57604;BME280;43429;47.380;8.484;2022-07-10T07:12:23;97345.44;;;21.50;65.54
57604;BME280;43429;47.380;8.484;2022-07-10T07:14:50;97346.03;;;21.26;65.80
57604;BME280;43429;47.380;8.484;2022-07-10T07:17:16;97347.03;;;21.11;66.46
57604;BME280;43429;47.380;8.484;2022-07-10T07:19:47;97342.72;;;20.69;69.22
57604;BME280;43429;47.380;8.484;2022-07-10T07:22:32;97338.44;;;20.88;67.74
57604;BME280;43429;47.380;8.484;2022-07-10T07:25:16;97337.91;;;20.65;69.52
57604;BME280;43429;47.380;8.484;2022-07-10T07:27:42;97345.75;;;20.94;66.92
57604;BME280;43429;47.380;8.484;2022-07-10T07:30:10;97337.66;;;21.21;68.53
57604;BME280;43429;47.380;8.484;2022-07-10T07:32:37;97339.72;;;21.05;68.60
57604;BME280;43429;47.380;8.484;2022-07-10T07:35:05;97339.34;;;21.35;66.40
57604;BME280;43429;47.380;8.484;2022-07-10T07:37:38;97335.19;;;21.39;65.81
57604;BME280;43429;47.380;8.484;2022-07-10T07:40:06;97339.59;;;20.72;68.19
57604;BME280;43429;47.380;8.484;2022-07-10T07:42:33;97341.34;;;20.93;67.35
57604;BME280;43429;47.380;8.484;2022-07-10T07:44:59;97336.63;;;20.54;67.47
57604;BME280;43429;47.380;8.484;2022-07-10T07:47:26;97332.34;;;20.79;67.22
57604;BME280;43429;47.380;8.484;2022-07-10T07:49:52;97347.34;;;20.75;67.17
57604;BME280;43429;47.380;8.484;2022-07-10T07:52:18;97353.50;;;21.10;66.67
57604;BME280;43429;47.380;8.484;2022-07-10T07:54:45;97346.91;;;21.59;65.14
57604;BME280;43429;47.380;8.484;2022-07-10T07:57:12;97343.19;;;20.79;67.14
57604;BME280;43429;47.380;8.484;2022-07-10T07:59:38;97341.22;;;21.21;66.65
57604;BME280;43429;47.380;8.484;2022-07-10T08:02:05;97343.59;;;21.77;64.09
57604;BME280;43429;47.380;8.484;2022-07-10T08:04:31;97344.25;;;20.92;66.61
57604;BME280;43429;47.380;8.484;2022-07-10T08:06:58;97350.44;;;21.33;65.66
57604;BME280;43429;47.380;8.484;2022-07-10T08:09:26;97344.59;;;21.70;65.46
57604;BME280;43429;47.380;8.484;2022-07-10T08:11:53;97335.84;;;21.74;65.49
57604;BME280;43429;47.380;8.484;2022-07-10T08:14:19;97334.38;;;21.58;64.47
57604;BME280;43429;47.380;8.484;2022-07-10T08:16:45;97341.66;;;21.98;63.40
57604;BME280;43429;47.380;8.484;2022-07-10T08:19:11;97341.47;;;21.99;64.19
57604;BME280;43429;47.380;8.484;2022-07-10T08:21:38;97345.88;;;21.67;65.89
57604;BME280;43429;47.380;8.484;2022-07-10T08:24:04;97338.56;;;21.74;64.85
57604;BME280;43429;47.380;8.484;2022-07-10T08:26:30;97334.38;;;21.58;64.19
57604;BME280;43429;47.380;8.484;2022-07-10T08:28:57;97334.19;;;21.67;64.94
57604;BME280;43429;47.380;8.484;2022-07-10T08:31:23;97330.34;;;22.27;63.13
57604;BME280;43429;47.380;8.484;2022-07-10T08:33:50;97332.03;;;22.08;64.80
57604;BME280;43429;47.380;8.484;2022-07-10T08:36:17;97330.91;;;22.56;61.98
57604;BME280;43429;47.380;8.484;2022-07-10T08:38:43;97333.50;;;21.91;63.31
57604;BME280;43429;47.380;8.484;2022-07-10T08:41:11;97337.91;;;21.39;65.95
57604;BME280;43429;47.380;8.484;2022-07-10T08:43:39;97333.50;;;21.25;67.22
57604;BME280;43429;47.380;8.484;2022-07-10T08:46:06;97319.97;;;21.51;66.37
57604;BME280;43429;47.380;8.484;2022-07-10T08:48:33;97324.94;;;21.94;65.66
57604;BME280;43429;47.380;8.484;2022-07-10T08:51:04;97311.72;;;22.31;64.92
57604;BME280;43429;47.380;8.484;2022-07-10T08:53:32;97303.59;;;22.69;64.00
57604;BME280;43429;47.380;8.484;2022-07-10T08:55:59;97306.50;;;22.23;62.95
57604;BME280;43429;47.380;8.484;2022-07-10T08:58:27;97318.25;;;21.97;64.64
57604;BME280;43429;47.380;8.484;2022-07-10T09:00:53;97312.53;;;22.89;63.33
57604;BME280;43429;47.380;8.484;2022-07-10T09:03:20;97315.75;;;23.18;61.66
57604;BME280;43429;47.380;8.484;2022-07-10T09:05:46;97306.69;;;22.92;60.27
57604;BME280;43429;47.380;8.484;2022-07-10T09:08:22;97317.16;;;22.82;60.93
57604;BME280;43429;47.380;8.484;2022-07-10T09:10:49;97314.06;;;22.21;64.07
57604;BME280;43429;47.380;8.484;2022-07-10T09:13:16;97321.72;;;22.95;62.31
57604;BME280;43429;47.380;8.484;2022-07-10T09:15:48;97312.25;;;23.04;61.95
57604;BME280;43429;47.380;8.484;2022-07-10T09:18:18;97309.59;;;22.84;60.82
57604;BME280;43429;47.380;8.484;2022-07-10T09:20:46;97309.31;;;23.06;59.09
57604;BME280;43429;47.380;8.484;2022-07-10T09:23:15;97311.19;;;23.05;60.75
57604;BME280;43429;47.380;8.484;2022-07-10T09:25:42;97309.69;;;23.73;59.51
57604;BME280;43429;47.380;8.484;2022-07-10T09:28:08;97299.91;;;23.58;57.45
57604;BME280;43429;47.380;8.484;2022-07-10T09:30:35;97306.16;;;23.90;56.34
57604;BME280;43429;47.380;8.484;2022-07-10T09:33:20;97307.75;;;23.98;57.38
57604;BME280;43429;47.380;8.484;2022-07-10T09:36:10;97315.03;;;23.54;57.40
57604;BME280;43429;47.380;8.484;2022-07-10T09:38:53;97305.25;;;24.88;54.47
57604;BME280;43429;47.380;8.484;2022-07-10T09:41:22;97301.66;;;24.58;55.67
57604;BME280;43429;47.380;8.484;2022-07-10T09:43:50;97293.81;;;24.50;53.46
57604;BME280;43429;47.380;8.484;2022-07-10T09:46:18;97310.66;;;24.03;56.27
57604;BME280;43429;47.380;8.484;2022-07-10T09:48:45;97308.16;;;24.02;54.50
57604;BME280;43429;47.380;8.484;2022-07-10T09:51:13;97307.69;;;24.05;54.57
57604;BME280;43429;47.380;8.484;2022-07-10T09:53:40;97308.19;;;24.57;53.38
57604;BME280;43429;47.380;8.484;2022-07-10T09:56:09;97305.06;;;24.53;53.35
57604;BME280;43429;47.380;8.484;2022-07-10T09:58:37;97304.28;;;24.09;53.40
57604;BME280;43429;47.380;8.484;2022-07-10T10:01:05;97309.25;;;23.76;55.68
57604;BME280;43429;47.380;8.484;2022-07-10T10:03:36;97304.50;;;23.33;56.42
57604;BME280;43429;47.380;8.484;2022-07-10T10:06:05;97303.03;;;24.12;54.16
57604;BME280;43429;47.380;8.484;2022-07-10T10:08:41;97298.44;;;24.06;54.38
57604;BME280;43429;47.380;8.484;2022-07-10T10:11:13;97297.66;;;24.60;51.50
57604;BME280;43429;47.380;8.484;2022-07-10T10:13:40;97294.28;;;24.03;52.43
57604;BME280;43429;47.380;8.484;2022-07-10T10:16:06;97300.41;;;24.90;49.75
57604;BME280;43429;47.380;8.484;2022-07-10T10:18:34;97296.50;;;24.68;50.50
57604;BME280;43429;47.380;8.484;2022-07-10T10:21:02;97292.78;;;24.81;50.89
57604;BME280;43429;47.380;8.484;2022-07-10T10:23:32;97289.94;;;24.87;50.17
57604;BME280;43429;47.380;8.484;2022-07-10T10:26:00;97292.72;;;24.99;48.34
57604;BME280;43429;47.380;8.484;2022-07-10T10:28:26;97284.72;;;24.86;48.70
57604;BME280;43429;47.380;8.484;2022-07-10T10:30:55;97289.13;;;24.68;49.90
57604;BME280;43429;47.380;8.484;2022-07-10T10:33:44;97283.22;;;24.16;53.14
57604;BME280;43429;47.380;8.484;2022-07-10T10:36:13;97281.88;;;23.32;53.26
57604;BME280;43429;47.380;8.484;2022-07-10T10:39:02;97279.31;;;24.49;53.02
57604;BME280;43429;47.380;8.484;2022-07-10T10:41:37;97271.13;;;24.79;51.66
57604;BME280;43429;47.380;8.484;2022-07-10T10:44:36;97278.69;;;25.25;49.02
57604;BME280;43429;47.380;8.484;2022-07-10T10:47:05;97267.50;;;24.85;49.13
57604;BME280;43429;47.380;8.484;2022-07-10T10:49:50;97267.78;;;24.47;49.62
57604;BME280;43429;47.380;8.484;2022-07-10T10:52:16;97276.94;;;24.71;50.45
57604;BME280;43429;47.380;8.484;2022-07-10T10:55:02;97273.78;;;25.16;47.82
57604;BME280;43429;47.380;8.484;2022-07-10T10:57:44;97266.88;;;25.67;47.63
57604;BME280;43429;47.380;8.484;2022-07-10T11:00:14;97257.09;;;26.29;47.81
57604;BME280;43429;47.380;8.484;2022-07-10T11:02:41;97255.63;;;25.75;47.80
57604;BME280;43429;47.380;8.484;2022-07-10T11:05:40;97263.25;;;25.31;47.36
57604;BME280;43429;47.380;8.484;2022-07-10T11:08:11;97259.06;;;24.57;48.77
57604;BME280;43429;47.380;8.484;2022-07-10T11:10:39;97255.25;;;24.76;47.75
57604;BME280;43429;47.380;8.484;2022-07-10T11:13:07;97252.63;;;25.65;45.48
57604;BME280;43429;47.380;8.484;2022-07-10T11:15:35;97244.53;;;25.05;45.63
57604;BME280;43429;47.380;8.484;2022-07-10T11:18:09;97236.25;;;25.76;44.28
57604;BME280;43429;47.380;8.484;2022-07-10T11:20:38;97231.47;;;25.60;46.56
57604;BME280;43429;47.380;8.484;2022-07-10T11:23:37;97230.53;;;25.78;45.08
57604;BME280;43429;47.380;8.484;2022-07-10T11:26:10;97222.31;;;25.66;45.32
57604;BME280;43429;47.380;8.484;2022-07-10T11:28:54;97219.50;;;26.48;44.11
57604;BME280;43429;47.380;8.484;2022-07-10T11:31:21;97219.63;;;26.70;43.24
57604;BME280;43429;47.380;8.484;2022-07-10T11:33:51;97228.47;;;25.62;44.98
57604;BME280;43429;47.380;8.484;2022-07-10T11:36:19;97211.38;;;25.43;44.87
57604;BME280;43429;47.380;8.484;2022-07-10T11:38:48;97218.31;;;26.44;42.20
57604;BME280;43429;47.380;8.484;2022-07-10T11:41:21;97215.25;;;26.17;42.93
57604;BME280;43429;47.380;8.484;2022-07-10T11:43:49;97206.16;;;25.88;43.57
57604;BME280;43429;47.380;8.484;2022-07-10T11:46:17;97211.03;;;26.78;45.89
57604;BME280;43429;47.380;8.484;2022-07-10T11:48:44;97213.81;;;26.67;43.46
57604;BME280;43429;47.380;8.484;2022-07-10T11:51:22;97223.63;;;25.64;45.91
57604;BME280;43429;47.380;8.484;2022-07-10T11:53:55;97222.88;;;26.15;44.10
57604;BME280;43429;47.380;8.484;2022-07-10T11:56:21;97213.00;;;26.14;43.43
57604;BME280;43429;47.380;8.484;2022-07-10T11:58:54;97218.56;;;26.71;43.38
57604;BME280;43429;47.380;8.484;2022-07-10T12:01:21;97216.03;;;26.98;42.06
57604;BME280;43429;47.380;8.484;2022-07-10T12:03:57;97208.22;;;27.52;41.77
57604;BME280;43429;47.380;8.484;2022-07-10T12:06:24;97210.88;;;27.64;39.83
57604;BME280;43429;47.380;8.484;2022-07-10T12:08:50;97203.00;;;28.06;39.00
57604;BME280;43429;47.380;8.484;2022-07-10T12:11:17;97203.25;;;28.05;40.32
57604;BME280;43429;47.380;8.484;2022-07-10T12:13:44;97207.69;;;28.72;39.28
57604;BME280;43429;47.380;8.484;2022-07-10T12:16:12;97193.50;;;29.12;36.03
57604;BME280;43429;47.380;8.484;2022-07-10T12:18:40;97197.38;;;27.96;38.62
57604;BME280;43429;47.380;8.484;2022-07-10T12:21:08;97194.28;;;27.93;40.88
57604;BME280;43429;47.380;8.484;2022-07-10T12:23:34;97196.75;;;27.39;40.17
57604;BME280;43429;47.380;8.484;2022-07-10T12:26:04;97206.97;;;27.10;41.02
57604;BME280;43429;47.380;8.484;2022-07-10T12:28:30;97198.69;;;26.24;41.96
57604;BME280;43429;47.380;8.484;2022-07-10T12:30:57;97202.66;;;26.05;43.98
57604;BME280;43429;47.380;8.484;2022-07-10T12:33:23;97199.75;;;26.92;42.40
57604;BME280;43429;47.380;8.484;2022-07-10T12:35:53;97194.28;;;27.20;41.11
57604;BME280;43429;47.380;8.484;2022-07-10T12:38:22;97200.78;;;28.96;37.12
57604;BME280;43429;47.380;8.484;2022-07-10T12:40:50;97194.28;;;29.67;35.27
57604;BME280;43429;47.380;8.484;2022-07-10T12:43:26;97184.72;;;31.35;32.29
57604;BME280;43429;47.380;8.484;2022-07-10T12:46:11;97190.53;;;31.49;29.15
57604;BME280;43429;47.380;8.484;2022-07-10T12:48:39;97186.63;;;30.26;32.57
57604;BME280;43429;47.380;8.484;2022-07-10T12:51:24;97184.03;;;30.67;32.67
57604;BME280;43429;47.380;8.484;2022-07-10T12:53:50;97182.22;;;31.75;30.39
57604;BME280;43429;47.380;8.484;2022-07-10T12:56:30;97174.69;;;32.11;29.19
57604;BME280;43429;47.380;8.484;2022-07-10T12:58:57;97182.28;;;29.88;32.38
57604;BME280;43429;47.380;8.484;2022-07-10T13:01:23;97178.22;;;30.68;30.82